createdAt,value
2022-09-15T00:01:18.177Z,82.87
2022-09-15T00:03:47.044Z,82.97
2022-09-15T00:06:15.308Z,82.76
2022-09-15T00:08:44.248Z,82.97
2022-09-15T00:11:16.312Z,82.94
2022-09-15T00:13:43.806Z,83.20
2022-09-15T00:16:15.275Z,83.46
2022-09-15T00:18:44.589Z,83.34
2022-09-15T00:21:15.977Z,83.13
2022-09-15T00:23:46.380Z,83.70
2022-09-15T00:26:14.960Z,83.44
2022-09-15T00:28:41.668Z,83.33
2022-09-15T00:31:11.379Z,83.73
2022-09-15T00:33:39.144Z,84.08
2022-09-15T00:36:09.493Z,83.81
2022-09-15T00:38:38.249Z,83.79
2022-09-15T00:41:08.428Z,84.38
2022-09-15T00:43:45.154Z,84.19
2022-09-15T00:46:13.762Z,84.17
2022-09-15T00:48:47.400Z,84.60
2022-09-15T00:51:18.133Z,84.43
2022-09-15T00:53:47.215Z,84.41
2022-09-15T00:56:16.108Z,84.88
2022-09-15T00:58:59.415Z,84.15
2022-09-15T01:01:30.505Z,84.52
2022-09-15T01:03:58.413Z,84.46
2022-09-15T01:06:31.570Z,84.36
2022-09-15T01:09:11.806Z,84.68
2022-09-15T01:11:40.949Z,84.72
2022-09-15T01:14:07.955Z,84.60
2022-09-15T01:16:52.992Z,84.18
2022-09-15T01:19:52.572Z,84.27
2022-09-15T01:22:53.228Z,84.29
2022-09-15T01:25:55.142Z,84.02
2022-09-15T01:28:55.673Z,84.26
2022-09-15T01:32:06.765Z,84.35
2022-09-15T01:34:44.509Z,84.69
2022-09-15T01:37:17.776Z,84.58
2022-09-15T01:39:49.493Z,84.46
2022-09-15T01:42:19.540Z,84.47
2022-09-15T01:45:00.871Z,84.49
2022-09-15T01:47:30.336Z,84.70
2022-09-15T01:50:07.511Z,84.37
2022-09-15T01:52:35.829Z,85.07
2022-09-15T01:55:07.833Z,84.78
2022-09-15T01:57:34.481Z,84.41
2022-09-15T02:00:01.049Z,84.53
2022-09-15T02:02:33.042Z,84.95
2022-09-15T02:05:08.029Z,84.83
2022-09-15T02:07:55.388Z,84.68
2022-09-15T02:10:57.924Z,84.92
2022-09-15T02:13:42.835Z,84.69
2022-09-15T02:16:20.115Z,84.97
2022-09-15T02:19:10.950Z,85.26
2022-09-15T02:21:53.969Z,85.29
2022-09-15T02:24:32.224Z,85.24
2022-09-15T02:27:01.789Z,85.60
2022-09-15T02:29:33.712Z,85.63
2022-09-15T02:32:06.958Z,85.89
2022-09-15T02:34:39.530Z,85.99
2022-09-15T02:37:11.672Z,86.32
2022-09-15T02:39:45.680Z,86.52
2022-09-15T02:42:13.360Z,86.55
2022-09-15T02:44:41.318Z,86.68
2022-09-15T02:47:08.829Z,86.74
2022-09-15T02:49:36.262Z,86.60
2022-09-15T02:52:02.937Z,86.93
2022-09-15T02:54:29.510Z,86.56
2022-09-15T02:56:57.946Z,86.81
2022-09-15T02:59:24.601Z,86.48
2022-09-15T03:01:55.691Z,86.22
2022-09-15T03:04:25.206Z,86.68
2022-09-15T03:06:52.665Z,86.57
2022-09-15T03:09:22.185Z,86.82
2022-09-15T03:11:52.697Z,86.40
2022-09-15T03:14:21.173Z,86.71
2022-09-15T03:16:48.760Z,86.83
2022-09-15T03:19:17.225Z,86.42
2022-09-15T03:21:44.727Z,86.70
2022-09-15T03:24:11.217Z,87.04
2022-09-15T03:26:37.578Z,86.90
2022-09-15T03:29:05.002Z,86.70
2022-09-15T03:31:32.477Z,86.88
2022-09-15T03:33:59.919Z,86.73
2022-09-15T03:36:27.367Z,86.88
2022-09-15T03:38:57.826Z,86.80
2022-09-15T03:41:27.970Z,86.96
2022-09-15T03:43:54.613Z,87.10
2022-09-15T03:46:24.262Z,86.69
2022-09-15T03:48:52.889Z,86.90
2022-09-15T03:51:20.480Z,86.24
2022-09-15T03:53:47.940Z,86.62
2022-09-15T03:56:27.296Z,86.49
2022-09-15T03:58:59.613Z,86.69
2022-09-15T04:01:26.285Z,87.17
2022-09-15T04:03:52.802Z,87.38
2022-09-15T04:06:24.397Z,87.33
2022-09-15T04:08:53.125Z,87.08
2022-09-15T04:11:22.672Z,86.93
2022-09-15T04:13:49.444Z,86.86
2022-09-15T04:16:19.914Z,86.99
2022-09-15T04:18:51.041Z,86.79
2022-09-15T04:21:20.913Z,86.48
2022-09-15T04:23:54.712Z,86.25
2022-09-15T04:26:26.069Z,86.85
2022-09-15T04:28:53.588Z,86.85
2022-09-15T04:31:21.070Z,86.52
2022-09-15T04:33:52.381Z,86.46
2022-09-15T04:36:23.411Z,87.00
2022-09-15T04:38:52.916Z,86.84
2022-09-15T04:41:20.999Z,86.36
2022-09-15T04:43:48.552Z,86.24
2022-09-15T04:46:16.998Z,86.26
2022-09-15T04:48:44.213Z,86.26
2022-09-15T04:51:15.897Z,85.81
2022-09-15T04:53:45.265Z,86.27
2022-09-15T04:56:15.613Z,85.84
2022-09-15T04:58:46.047Z,85.72
2022-09-15T05:01:19.003Z,85.59
2022-09-15T05:03:46.676Z,85.40
2022-09-15T05:06:17.465Z,85.31
2022-09-15T05:08:53.263Z,85.57
2022-09-15T05:11:21.738Z,85.46
2022-09-15T05:13:49.522Z,85.39
2022-09-15T05:16:22.697Z,85.17
2022-09-15T05:18:50.881Z,84.79
2022-09-15T05:21:20.096Z,84.69
2022-09-15T05:23:49.526Z,85.06
2022-09-15T05:26:18.841Z,84.65
2022-09-15T05:28:46.677Z,84.86
2022-09-15T05:31:19.007Z,85.14
2022-09-15T05:33:46.848Z,84.84
2022-09-15T05:36:15.128Z,85.02
2022-09-15T05:38:43.479Z,84.60
2022-09-15T05:41:18.465Z,84.57
2022-09-15T05:43:48.721Z,84.35
2022-09-15T05:46:18.020Z,84.39
2022-09-15T05:48:46.385Z,83.71
2022-09-15T05:51:13.564Z,84.34
2022-09-15T05:53:40.121Z,84.12
2022-09-15T05:56:12.344Z,84.47
2022-09-15T05:58:41.284Z,83.88
2022-09-15T06:01:35.629Z,84.13
2022-09-15T06:04:02.310Z,84.40
2022-09-15T06:06:31.484Z,84.51
2022-09-15T06:08:59.600Z,84.63
2022-09-15T06:11:29.815Z,84.43
2022-09-15T06:14:03.054Z,84.50
2022-09-15T06:16:36.027Z,84.80
2022-09-15T06:19:05.049Z,84.17
2022-09-15T06:21:33.156Z,84.06
2022-09-15T06:24:03.552Z,84.08
2022-09-15T06:26:30.309Z,84.00
2022-09-15T06:28:59.296Z,83.72
2022-09-15T06:31:27.438Z,83.97
2022-09-15T06:33:57.638Z,83.29
2022-09-15T06:36:27.209Z,83.78
2022-09-15T06:38:55.456Z,83.76
2022-09-15T06:41:23.000Z,83.33
2022-09-15T06:43:53.688Z,83.23
2022-09-15T06:46:22.948Z,83.33
2022-09-15T06:48:51.977Z,82.30
2022-09-15T06:51:26.003Z,82.73
2022-09-15T06:53:53.525Z,83.07
2022-09-15T06:56:22.767Z,83.36
2022-09-15T06:58:51.424Z,83.12
2022-09-15T07:01:29.770Z,83.09
2022-09-15T07:04:00.742Z,82.87
2022-09-15T07:06:33.773Z,82.23
2022-09-15T07:09:02.479Z,81.12
2022-09-15T07:11:30.927Z,80.40
2022-09-15T07:13:59.063Z,81.38
2022-09-15T07:16:26.674Z,80.86
2022-09-15T07:18:56.914Z,80.39
2022-09-15T07:21:23.957Z,79.90
2022-09-15T07:23:51.760Z,78.81
2022-09-15T07:26:21.483Z,79.29
2022-09-15T07:28:53.959Z,78.67
2022-09-15T07:31:23.609Z,78.32
2022-09-15T07:33:50.308Z,77.84
2022-09-15T07:36:19.289Z,77.98
2022-09-15T07:38:48.959Z,77.62
2022-09-15T07:41:24.501Z,76.97
2022-09-15T07:43:54.327Z,76.99
2022-09-15T07:46:29.352Z,76.77
2022-09-15T07:48:56.517Z,76.71
2022-09-15T07:51:25.484Z,77.27
2022-09-15T07:53:53.084Z,76.07
2022-09-15T07:56:23.291Z,75.84
2022-09-15T07:58:52.226Z,74.28
2022-09-15T08:01:22.626Z,74.17
2022-09-15T08:03:51.995Z,73.82
2022-09-15T08:06:20.979Z,74.00
2022-09-15T08:08:50.217Z,74.20
2022-09-15T08:11:20.203Z,74.61
2022-09-15T08:13:49.590Z,73.82
2022-09-15T08:16:18.668Z,73.60
2022-09-15T08:18:45.917Z,73.04
2022-09-15T08:21:16.036Z,73.75
2022-09-15T08:23:44.907Z,73.76
2022-09-15T08:26:14.290Z,74.05
2022-09-15T08:28:42.171Z,73.55
2022-09-15T08:31:12.848Z,74.28
2022-09-15T08:33:43.355Z,74.08
2022-09-15T08:36:11.460Z,73.34
2022-09-15T08:38:44.189Z,72.74
2022-09-15T08:41:25.453Z,72.91
2022-09-15T08:44:27.054Z,73.12
2022-09-15T08:47:20.421Z,72.02
2022-09-15T08:50:05.579Z,71.58
2022-09-15T08:52:38.156Z,70.77
2022-09-15T08:55:19.019Z,71.08
2022-09-15T08:57:47.413Z,71.40
2022-09-15T09:00:16.549Z,70.92
2022-09-15T09:03:06.598Z,70.82
2022-09-15T09:06:02.519Z,71.15
2022-09-15T09:08:35.230Z,71.46
2022-09-15T09:11:43.278Z,71.69
2022-09-15T09:14:27.607Z,71.76
2022-09-15T09:17:18.297Z,71.70
2022-09-15T09:19:50.380Z,71.39
2022-09-15T09:22:23.001Z,71.42
2022-09-15T09:24:53.284Z,71.16
2022-09-15T09:27:27.102Z,70.87
2022-09-15T09:30:03.918Z,71.83
2022-09-15T09:32:45.474Z,73.51
2022-09-15T09:35:36.265Z,74.20
2022-09-15T09:38:58.549Z,75.14
2022-09-15T09:41:51.875Z,75.29
2022-09-15T09:44:20.882Z,75.03
2022-09-15T09:47:00.633Z,75.14
2022-09-15T09:50:02.806Z,75.53
2022-09-15T09:52:42.047Z,74.34
2022-09-15T09:55:29.496Z,74.12
2022-09-15T09:58:15.575Z,73.88
2022-09-15T10:00:47.348Z,73.28
2022-09-15T10:03:32.932Z,73.50
2022-09-15T10:06:06.571Z,72.64
2022-09-15T10:08:52.010Z,72.37
2022-09-15T10:11:18.528Z,72.06
2022-09-15T10:13:59.376Z,71.77
2022-09-15T10:16:27.626Z,71.91
2022-09-15T10:18:57.914Z,71.87
2022-09-15T10:21:25.664Z,71.16
2022-09-15T10:23:55.143Z,70.78
2022-09-15T10:26:34.449Z,72.19
2022-09-15T10:29:12.432Z,72.39
2022-09-15T10:32:29.804Z,74.22
2022-09-15T10:35:13.982Z,74.43
2022-09-15T10:38:36.665Z,74.05
2022-09-15T10:41:27.261Z,73.31
2022-09-15T10:44:49.132Z,72.34
2022-09-15T10:47:34.520Z,72.44
2022-09-15T10:50:33.311Z,72.56
2022-09-15T10:53:57.209Z,72.21
2022-09-15T10:56:33.921Z,71.01
2022-09-15T10:59:48.200Z,71.44
2022-09-15T11:02:31.363Z,70.38
2022-09-15T11:05:22.609Z,69.38
2022-09-15T11:08:00.311Z,67.19
2022-09-15T11:10:55.869Z,67.54
2022-09-15T11:14:06.352Z,67.14
2022-09-15T11:16:57.809Z,67.03
2022-09-15T11:19:39.431Z,66.84
2022-09-15T11:22:34.378Z,66.92
2022-09-15T11:25:18.556Z,64.56
2022-09-15T11:27:53.787Z,65.29
2022-09-15T11:30:47.952Z,65.20
2022-09-15T11:33:33.022Z,64.06
2022-09-15T11:36:09.697Z,63.97
2022-09-15T11:38:40.477Z,62.27
2022-09-15T11:41:33.897Z,62.61
2022-09-15T11:44:22.847Z,63.66
2022-09-15T11:47:29.332Z,61.64
2022-09-15T11:50:14.547Z,61.53
2022-09-15T11:53:08.915Z,61.71
2022-09-15T11:56:04.204Z,60.20
2022-09-15T11:59:00.222Z,60.28
2022-09-15T12:02:14.420Z,60.62
2022-09-15T12:04:49.109Z,61.01
2022-09-15T12:07:28.796Z,60.75
2022-09-15T12:09:56.638Z,60.59
2022-09-15T12:12:30.632Z,59.08
2022-09-15T12:15:18.907Z,57.73
2022-09-15T12:18:34.326Z,56.88
2022-09-15T12:21:26.240Z,57.43
2022-09-15T12:24:20.760Z,55.75
2022-09-15T12:26:47.481Z,53.72
2022-09-15T12:30:06.298Z,53.91
2022-09-15T12:32:35.065Z,52.31
2022-09-15T12:35:23.366Z,55.20
2022-09-15T12:37:58.882Z,54.00
2022-09-15T12:40:44.373Z,55.87
2022-09-15T12:43:12.555Z,56.59
2022-09-15T12:45:52.523Z,56.56
2022-09-15T12:48:22.152Z,56.86
2022-09-15T12:51:10.474Z,58.49
2022-09-15T12:54:05.140Z,59.79
2022-09-15T12:56:53.908Z,60.01
2022-09-15T12:59:28.073Z,60.19
2022-09-15T13:01:57.547Z,61.01
2022-09-15T13:04:42.526Z,62.20
2022-09-15T13:07:16.007Z,63.16
2022-09-15T13:09:59.744Z,64.16
2022-09-15T13:12:55.135Z,65.07
2022-09-15T13:15:46.671Z,66.18
2022-09-15T13:18:30.928Z,64.46
2022-09-15T13:21:22.987Z,64.34
2022-09-15T13:23:53.132Z,64.61
2022-09-15T13:26:27.827Z,64.54
2022-09-15T13:28:57.962Z,64.82
2022-09-15T13:32:02.905Z,64.69
2022-09-15T13:38:15.022Z,64.07
2022-09-15T13:41:23.356Z,63.47
2022-09-15T13:44:38.029Z,61.93
2022-09-15T13:51:31.462Z,59.79
2022-09-15T13:54:06.125Z,58.88
2022-09-15T13:56:40.199Z,59.35
2022-09-15T13:59:16.913Z,58.63
2022-09-15T14:01:50.465Z,58.19
2022-09-15T14:04:30.923Z,56.99
2022-09-15T14:07:20.030Z,57.70
2022-09-15T14:09:49.327Z,58.24
2022-09-15T14:12:18.660Z,59.32
2022-09-15T14:14:54.804Z,60.58
2022-09-15T14:17:44.981Z,61.31
2022-09-15T14:20:34.570Z,61.08
2022-09-15T14:23:16.386Z,62.13
2022-09-15T14:25:45.948Z,60.97
2022-09-15T14:28:32.860Z,61.15
2022-09-15T14:31:04.328Z,60.20
2022-09-15T14:33:40.571Z,60.25
2022-09-15T14:36:21.328Z,60.11
2022-09-15T14:39:18.053Z,59.78
2022-09-15T14:47:43.248Z,59.60
2022-09-15T14:50:21.540Z,60.12
2022-09-15T14:53:11.548Z,60.57
2022-09-15T14:56:08.177Z,60.13
2022-09-15T14:59:16.410Z,59.88
2022-09-15T15:01:56.895Z,60.55
2022-09-15T15:04:40.838Z,61.46
2022-09-15T15:07:29.097Z,61.65
2022-09-15T15:10:07.567Z,61.87
2022-09-15T15:12:57.237Z,62.21
2022-09-15T15:15:48.093Z,62.82
2022-09-15T15:18:46.784Z,62.89
2022-09-15T15:21:45.768Z,63.14
2022-09-15T15:24:39.653Z,62.75
2022-09-15T15:27:33.952Z,63.61
2022-09-15T15:30:37.924Z,63.82
2022-09-15T15:33:25.455Z,63.77
2022-09-15T15:36:11.889Z,63.80
2022-09-15T15:39:02.133Z,64.51
2022-09-15T15:41:40.858Z,63.17
2022-09-15T15:44:45.349Z,63.40
2022-09-15T15:47:32.596Z,63.85
2022-09-15T15:50:20.152Z,63.75
2022-09-15T15:53:00.701Z,64.68
2022-09-15T15:55:41.910Z,64.59
2022-09-15T15:58:22.625Z,64.74
2022-09-15T16:01:01.710Z,64.33
2022-09-15T16:03:28.265Z,64.87
2022-09-15T16:05:59.420Z,64.29
2022-09-15T16:08:34.146Z,63.56
2022-09-15T16:11:04.009Z,63.87
2022-09-15T16:13:32.499Z,64.36
2022-09-15T16:16:15.639Z,64.50
2022-09-15T16:18:42.261Z,64.58
2022-09-15T16:21:31.684Z,64.89
2022-09-15T16:23:59.081Z,65.46
2022-09-15T16:26:35.661Z,65.75
2022-09-15T16:29:02.553Z,65.85
2022-09-15T16:32:05.997Z,64.99
2022-09-15T16:34:37.682Z,64.54
2022-09-15T16:37:06.605Z,64.68
2022-09-15T16:39:38.132Z,64.48
2022-09-15T16:42:06.714Z,65.27
2022-09-15T16:44:44.013Z,65.34
2022-09-15T16:47:19.222Z,65.03
2022-09-15T16:49:52.747Z,65.08
2022-09-15T16:52:27.064Z,64.84
2022-09-15T16:54:58.511Z,65.59
2022-09-15T16:57:25.958Z,65.96
2022-09-15T17:00:04.569Z,65.84
2022-09-15T17:02:38.012Z,65.69
2022-09-15T17:05:25.465Z,66.15
2022-09-15T17:08:09.853Z,66.60
2022-09-15T17:10:49.083Z,65.80
2022-09-15T17:13:21.677Z,66.85
2022-09-15T17:15:50.771Z,67.21
2022-09-15T17:18:30.669Z,66.24
2022-09-15T17:20:59.046Z,66.38
2022-09-15T17:23:53.503Z,66.95
2022-09-15T17:26:25.495Z,66.87
2022-09-15T17:29:52.877Z,66.95
2022-09-15T17:32:23.056Z,67.19
2022-09-15T17:35:26.812Z,67.36
2022-09-15T17:37:54.348Z,67.05
2022-09-15T17:40:35.084Z,67.65
2022-09-15T17:43:02.455Z,68.63
2022-09-15T17:45:33.970Z,68.24
2022-09-15T17:51:57.093Z,68.51
2022-09-15T17:54:25.913Z,68.89
2022-09-15T17:57:00.431Z,68.41
2022-09-15T17:59:29.006Z,68.94
2022-09-15T18:02:02.643Z,69.16
2022-09-15T18:04:56.500Z,69.36
2022-09-15T18:07:30.050Z,69.52
2022-09-15T18:10:06.000Z,70.17
2022-09-15T18:12:32.460Z,70.46
2022-09-15T18:15:05.437Z,70.60
2022-09-15T18:17:34.981Z,70.38
2022-09-15T18:20:39.624Z,70.59
2022-09-15T18:23:24.849Z,70.94
2022-09-15T18:26:00.513Z,70.28
2022-09-15T18:28:38.075Z,72.32
2022-09-15T18:31:04.685Z,74.29
2022-09-15T18:33:37.364Z,75.17
2022-09-15T18:36:12.311Z,75.90
2022-09-15T18:38:46.903Z,76.79
2022-09-15T18:41:14.453Z,77.90
2022-09-15T18:43:51.253Z,78.06
2022-09-15T18:46:30.144Z,78.64
2022-09-15T18:49:02.880Z,78.98
2022-09-15T18:51:52.248Z,79.07
2022-09-15T18:54:24.108Z,79.79
2022-09-15T18:57:47.662Z,79.65
2022-09-15T19:00:46.159Z,79.70
2022-09-15T19:03:44.081Z,79.58
2022-09-15T19:06:11.022Z,79.19
2022-09-15T19:08:37.813Z,80.50
2022-09-15T19:11:06.685Z,80.61
2022-09-15T19:13:35.724Z,81.10
2022-09-15T19:16:58.319Z,81.20
2022-09-15T19:20:02.318Z,81.12
2022-09-15T19:22:30.806Z,81.33
2022-09-15T19:25:00.147Z,81.88
2022-09-15T19:27:26.693Z,82.39
2022-09-15T19:29:54.216Z,82.05
2022-09-15T19:32:25.902Z,81.59
2022-09-15T19:35:08.394Z,81.37
2022-09-15T19:37:44.075Z,81.84
2022-09-15T19:40:18.682Z,81.72
2022-09-15T19:42:55.461Z,82.42
2022-09-15T19:45:22.904Z,82.48
2022-09-15T19:47:49.357Z,82.38
2022-09-15T19:50:16.866Z,82.64
2022-09-15T19:52:59.800Z,82.42
2022-09-15T19:55:28.640Z,82.78
2022-09-15T19:57:56.036Z,82.56
2022-09-15T20:00:25.668Z,82.54
2022-09-15T20:03:03.516Z,82.45
2022-09-15T20:05:33.052Z,82.98
2022-09-15T20:08:02.026Z,82.80
2022-09-15T20:10:39.624Z,83.03
2022-09-15T20:13:07.094Z,83.43
2022-09-15T20:15:34.693Z,83.57
2022-09-15T20:18:04.917Z,83.88
2022-09-15T20:20:39.012Z,83.72
2022-09-15T20:23:15.560Z,83.70
2022-09-15T20:26:00.516Z,83.39
2022-09-15T20:29:17.684Z,83.61
2022-09-15T20:32:10.753Z,83.76
2022-09-15T20:34:43.540Z,84.29
2022-09-15T20:37:49.549Z,84.24
2022-09-15T20:40:18.488Z,84.92
2022-09-15T20:43:06.854Z,84.31
2022-09-15T20:45:37.131Z,85.23
2022-09-15T20:48:10.866Z,85.02
2022-09-15T20:50:40.368Z,85.36
2022-09-15T20:53:11.904Z,85.03
2022-09-15T20:55:57.208Z,85.20
2022-09-15T20:58:27.221Z,85.42
2022-09-15T21:01:18.382Z,85.05
2022-09-15T21:03:47.780Z,84.89
2022-09-15T21:06:23.421Z,84.81
2022-09-15T21:08:56.788Z,84.92
2022-09-15T21:11:26.691Z,84.84
2022-09-15T21:13:54.520Z,84.44
2022-09-15T21:16:37.383Z,84.43
2022-09-15T21:19:19.057Z,84.50
2022-09-15T21:21:58.915Z,84.13
2022-09-15T21:24:57.534Z,84.40
2022-09-15T21:27:30.194Z,84.55
2022-09-15T21:30:11.397Z,84.60
2022-09-15T21:32:48.765Z,84.85
2022-09-15T21:35:25.566Z,85.33
2022-09-15T21:38:16.504Z,85.11
2022-09-15T21:40:48.516Z,84.97
2022-09-15T21:43:16.293Z,85.11
2022-09-15T21:45:47.910Z,85.50
2022-09-15T21:48:14.390Z,85.01
2022-09-15T21:50:58.150Z,84.77
2022-09-15T21:53:46.110Z,84.40
2022-09-15T21:56:17.042Z,84.41
2022-09-15T21:58:50.935Z,84.53
2022-09-15T22:01:26.520Z,84.84
2022-09-15T22:03:55.247Z,85.46
2022-09-15T22:06:40.810Z,85.27
2022-09-15T22:09:16.055Z,85.78
2022-09-15T22:11:47.957Z,86.08
2022-09-15T22:14:28.686Z,86.17
2022-09-15T22:16:56.454Z,86.03
2022-09-15T22:19:24.250Z,85.47
2022-09-15T22:21:55.870Z,85.31
2022-09-15T22:24:47.940Z,85.35
2022-09-15T22:27:32.682Z,85.39
2022-09-15T22:34:05.415Z,85.44
2022-09-15T22:36:34.281Z,85.29
2022-09-15T22:39:57.750Z,85.25
2022-09-15T22:42:50.325Z,85.47
2022-09-15T22:45:55.898Z,85.07
2022-09-15T22:48:43.627Z,85.39
2022-09-15T22:54:50.716Z,85.55
2022-09-15T22:57:27.395Z,85.54
2022-09-15T22:59:59.110Z,85.07
2022-09-15T23:02:54.721Z,85.22
2022-09-15T23:05:41.602Z,84.96
2022-09-15T23:08:38.049Z,84.88
2022-09-15T23:11:19.218Z,85.08
2022-09-15T23:13:53.591Z,84.86
2022-09-15T23:16:22.330Z,85.26
2022-09-15T23:19:00.430Z,85.37
2022-09-15T23:21:33.276Z,85.78
2022-09-15T23:24:02.986Z,86.25
2022-09-15T23:26:45.756Z,86.31
2022-09-15T23:29:18.717Z,87.16
2022-09-15T23:32:14.258Z,86.55
2022-09-15T23:34:48.778Z,86.29
2022-09-15T23:37:17.244Z,86.64
2022-09-15T23:39:48.894Z,86.65
2022-09-15T23:42:19.126Z,86.74
2022-09-15T23:44:46.646Z,86.44
2022-09-15T23:47:17.102Z,86.54
2022-09-15T23:49:44.663Z,86.61
2022-09-15T23:52:18.225Z,86.52
2022-09-15T23:54:54.845Z,86.54
2022-09-15T23:57:29.130Z,86.82
2022-09-15T23:59:56.691Z,87.08
